Time;durP1;ratioP1;P1;durP2;ratioP2;P2;SDS_P1;SDS_P2;PMS_P1;PMS_P2;Temp;Humidity;BMP_temperature;BMP_pressure;BME280_temperature;BME280_humidity;BME280_pressure;Samples;Min_cycle;Max_cycle;Signal;HPM_P1;HPM_P2
2022/05/10 00:00:08;;;;;;;5.53;3.30;;;;;;;17.60;42.15;95077.88;5074147;28;20771;-83
2022/05/10 00:02:36;;;;;;;3.83;3.43;;;;;;;17.86;41.93;95116.38;5081030;28;20617;-85
2022/05/10 00:05:05;;;;;;;5.03;3.07;;;;;;;17.66;42.14;95093.53;5089852;28;20200;-81
2022/05/10 00:07:34;;;;;;;4.70;3.20;;;;;;;17.11;42.18;95006.59;5089982;28;20672;-83
2022/05/10 00:10:01;;;;;;;5.17;3.13;;;;;;;17.21;42.09;95033.00;5093398;28;20198;-83
2022/05/10 00:12:29;;;;;;;6.40;3.53;;;;;;;17.75;42.33;95112.41;5093677;28;20190;-84
2022/05/10 00:15:00;;;;;;;6.60;3.13;;;;;;;17.58;42.47;95087.59;5094912;28;20566;-81
2022/05/10 00:17:30;;;;;;;3.43;3.03;;;;;;;17.69;42.62;95108.69;5091807;28;20218;-80
2022/05/10 00:19:59;;;;;;;4.00;3.13;;;;;;;17.68;42.37;95111.44;5075545;28;20248;-79
2022/05/10 00:22:26;;;;;;;6.00;3.20;;;;;;;17.65;42.46;95115.19;5074554;28;20277;-82
2022/05/10 00:24:53;;;;;;;6.30;3.57;;;;;;;17.63;42.58;95113.75;5074418;28;20194;-83
2022/05/10 00:27:20;;;;;;;4.80;3.13;;;;;;;17.54;42.69;95103.44;5082804;28;20289;-80
2022/05/10 00:29:47;;;;;;;4.00;3.20;;;;;;;17.60;42.69;95107.13;5094598;28;20273;-80
2022/05/10 00:32:15;;;;;;;5.37;3.20;;;;;;;17.18;42.68;95048.84;5094289;28;20210;-79
2022/05/10 00:34:43;;;;;;;6.17;3.50;;;;;;;17.55;42.72;95105.06;5093983;28;20602;-81
2022/05/10 00:37:12;;;;;;;4.30;3.17;;;;;;;17.43;42.61;95095.25;5082413;28;20201;-81
2022/05/10 00:39:39;;;;;;;5.87;3.30;;;;;;;17.41;42.72;95100.63;5073622;28;20286;-81
2022/05/10 00:42:17;;;;;;;3.47;3.17;;;;;;;17.46;43.04;95106.06;5073683;28;20324;-81
2022/05/10 00:44:49;;;;;;;6.83;3.30;;;;;;;17.44;42.90;95110.63;5073729;28;20197;-82
2022/05/10 00:47:22;;;;;;;7.70;3.53;;;;;;;17.22;43.03;95075.16;5074181;28;20209;-85
2022/05/10 00:49:56;;;;;;;3.60;3.27;;;;;;;17.40;43.19;95105.94;5074266;28;20198;-80
2022/05/10 00:52:30;;;;;;;5.30;3.00;;;;;;;17.36;43.01;95115.84;5076765;28;20229;-82
2022/05/10 00:55:01;;;;;;;4.60;3.40;;;;;;;17.34;43.25;95115.19;5086001;28;20198;-81
2022/05/10 00:57:34;;;;;;;5.83;2.87;;;;;;;17.04;43.09;95068.47;5107716;28;20216;-83
2022/05/10 01:00:06;;;;;;;4.03;2.90;;;;;;;17.09;43.30;95082.66;5108630;28;20186;-83
2022/05/10 01:02:45;;;;;;;7.87;3.37;;;;;;;17.18;43.47;95100.53;5100509;28;20193;-85
2022/05/10 01:05:18;;;;;;;4.90;2.67;;;;;;;17.23;43.35;95112.97;5100514;28;20177;-83
2022/05/10 01:07:53;;;;;;;5.57;3.10;;;;;;;17.21;43.41;95107.97;5104988;28;20266;-83
2022/05/10 01:10:36;;;;;;;4.03;3.23;;;;;;;17.19;43.35;95104.75;5101864;28;20189;-82
2022/05/10 01:13:15;;;;;;;4.27;3.40;;;;;;;17.17;43.28;95103.31;5107956;28;20194;-85
2022/05/10 01:15:51;;;;;;;9.40;3.23;;;;;;;16.95;43.66;95063.50;5107393;28;20307;-84
2022/05/10 01:18:22;;;;;;;8.63;3.23;;;;;;;16.31;43.79;94970.56;5104499;28;20216;-85
2022/05/10 01:20:53;;;;;;;3.53;3.17;;;;;;;17.08;43.66;95088.81;5104003;28;20344;-85
2022/05/10 01:23:48;;;;;;;4.57;2.97;;;;;;;16.42;43.78;94990.06;5094394;28;20193;-85
2022/05/10 01:26:24;;;;;;;4.03;3.43;;;;;;;17.04;43.78;95091.72;5091894;28;20648;-83
2022/05/10 01:28:58;;;;;;;3.80;3.40;;;;;;;17.01;43.93;95092.06;5073478;28;20205;-82
2022/05/10 01:31:31;;;;;;;5.50;3.37;;;;;;;16.70;43.75;95044.66;5073150;28;20190;-81
2022/05/10 01:34:06;;;;;;;6.43;3.43;;;;;;;16.96;43.94;95086.56;5073105;28;20186;-83
2022/05/10 01:36:41;;;;;;;3.00;2.80;;;;;;;16.95;44.05;95081.59;5072980;28;20267;-84
2022/05/10 01:39:16;;;;;;;3.30;3.00;;;;;;;16.85;44.06;95068.06;5072743;28;20211;-81
2022/05/10 01:41:48;;;;;;;3.63;3.03;;;;;;;16.77;44.09;95063.72;5072201;28;20221;-82
2022/05/10 01:44:22;;;;;;;2.80;2.60;;;;;;;16.88;44.13;95086.63;5073275;28;20627;-84
2022/05/10 01:46:55;;;;;;;4.93;3.23;;;;;;;16.65;44.11;95054.69;5080351;28;20181;-81
2022/05/10 01:49:31;;;;;;;6.53;2.93;;;;;;;16.82;44.11;95083.91;5077390;28;20662;-80
2022/05/10 01:52:04;;;;;;;5.10;3.00;;;;;;;16.80;44.32;95082.28;5072604;28;20218;-84
2022/05/10 01:55:03;;;;;;;5.10;3.17;;;;;;;16.78;44.36;95083.41;5072843;28;20273;-84
2022/05/10 01:57:33;;;;;;;4.83;3.00;;;;;;;16.75;44.46;95081.16;5084134;28;20197;-85
2022/05/10 02:00:12;;;;;;;5.07;2.67;;;;;;;16.73;44.38;95080.53;5097445;28;20949;-82
2022/05/10 02:02:44;;;;;;;4.23;3.10;;;;;;;16.47;44.55;95040.22;5111506;28;20201;-83
2022/05/10 02:05:15;;;;;;;4.47;3.07;;;;;;;16.69;44.41;95074.84;5103562;28;20182;-85
2022/05/10 02:07:46;;;;;;;4.13;2.67;;;;;;;16.43;44.67;95041.50;5067624;28;20238;-84
2022/05/10 02:10:20;;;;;;;4.80;3.27;;;;;;;16.65;44.65;95083.09;5084693;28;20567;-84
2022/05/10 02:12:56;;;;;;;4.60;3.10;;;;;;;16.43;44.60;95058.78;5091853;28;20568;-85
2022/05/10 02:15:31;;;;;;;3.03;2.60;;;;;;;16.45;44.68;95062.00;5092137;28;20197;-84
2022/05/10 02:18:03;;;;;;;2.77;2.33;;;;;;;16.58;44.88;95085.56;5093546;28;20217;-85
2022/05/10 02:20:35;;;;;;;4.67;2.77;;;;;;;16.57;45.00;95086.50;5089990;28;20200;-82
2022/05/10 02:23:08;;;;;;;4.17;2.53;;;;;;;16.55;45.09;95088.44;5094651;28;20189;-85
2022/05/10 02:25:38;;;;;;;4.57;2.60;;;;;;;16.45;45.02;95075.72;5095580;28;20186;-83
2022/05/10 02:28:13;;;;;;;3.10;2.60;;;;;;;16.11;45.14;95026.91;5073387;28;20189;-85
2022/05/10 02:30:42;;;;;;;4.30;2.50;;;;;;;16.48;45.09;95090.88;5071387;28;20190;-85
2022/05/10 02:33:13;;;;;;;5.37;2.40;;;;;;;16.46;45.09;95086.84;5069896;28;20186;-84
2022/05/10 02:35:53;;;;;;;3.93;3.00;;;;;;;16.43;45.20;95082.81;5073551;28;20218;-84
2022/05/10 02:38:23;;;;;;;3.93;2.70;;;;;;;16.41;45.44;95078.81;5089178;28;20221;-83
2022/05/10 02:40:52;;;;;;;5.00;3.47;;;;;;;16.38;45.37;95081.69;5070826;28;20754;-81
2022/05/10 02:43:23;;;;;;;3.93;2.80;;;;;;;16.37;45.25;95086.06;5070691;28;20637;-84
2022/05/10 02:45:54;;;;;;;4.70;2.97;;;;;;;16.00;45.40;95022.06;5070419;28;20182;-84
2022/05/10 02:48:24;;;;;;;2.90;2.63;;;;;;;16.33;45.33;95082.19;5070962;28;20589;-82
2022/05/10 02:50:51;;;;;;;3.13;2.83;;;;;;;16.30;45.45;95083.31;5070810;28;20231;-82
2022/05/10 02:53:18;;;;;;;3.53;3.00;;;;;;;16.29;45.71;95091.22;5070504;28;20226;-83
2022/05/10 02:55:55;;;;;;;3.03;2.67;;;;;;;16.01;45.69;95039.94;5070689;28;20196;-83
2022/05/10 02:58:30;;;;;;;3.23;2.93;;;;;;;16.24;45.68;95090.91;5070677;28;20596;-82
2022/05/10 03:01:11;;;;;;;4.83;3.37;;;;;;;16.23;45.95;95084.94;5070229;28;20568;-81
2022/05/10 03:03:38;;;;;;;5.23;3.27;;;;;;;16.08;45.58;95068.50;5070837;28;20271;-85
2022/05/10 03:06:05;;;;;;;4.47;2.60;;;;;;;16.20;45.78;95094.78;5070533;28;20186;-82
2022/05/10 03:08:32;;;;;;;4.33;2.60;;;;;;;16.18;45.98;95091.56;5075115;28;20240;-82
2022/05/10 03:10:59;;;;;;;6.03;2.80;;;;;;;15.90;45.93;95048.03;5083007;28;20191;-85
2022/05/10 03:13:26;;;;;;;6.80;3.40;;;;;;;16.16;46.02;95086.56;5102533;28;20193;-81
2022/05/10 03:15:53;;;;;;;6.37;3.03;;;;;;;16.15;46.03;95084.97;5086998;28;20190;-82
2022/05/10 03:18:21;;;;;;;3.10;2.70;;;;;;;16.14;46.20;95088.47;5091211;28;20205;-81
2022/05/10 03:20:49;;;;;;;6.23;3.30;;;;;;;16.14;46.17;95088.47;5095525;28;20197;-82
2022/05/10 03:23:16;;;;;;;5.00;3.37;;;;;;;15.76;46.25;95030.63;5092577;28;20200;-83
2022/05/10 03:25:43;;;;;;;5.40;2.77;;;;;;;16.14;46.14;95088.47;5091092;28;20185;-83
2022/05/10 03:28:10;;;;;;;6.70;3.30;;;;;;;16.16;46.23;95086.56;5093325;28;20633;-80
2022/05/10 03:30:37;;;;;;;5.27;3.00;;;;;;;16.17;46.26;95089.94;5091660;28;20579;-79
2022/05/10 03:33:04;;;;;;;3.57;3.27;;;;;;;16.17;46.27;95090.75;5090714;28;20201;-81
2022/05/10 03:35:33;;;;;;;4.30;2.60;;;;;;;16.22;46.09;95098.00;5094768;28;20750;-80
2022/05/10 03:38:00;;;;;;;11.67;3.27;;;;;;;16.23;46.23;95097.03;5091757;28;20190;-84
2022/05/10 03:40:27;;;;;;;6.27;3.40;;;;;;;16.25;46.17;95098.50;5091862;28;20189;-83
2022/05/10 03:42:54;;;;;;;6.97;3.33;;;;;;;16.14;46.37;95080.75;5091240;28;20762;-80
2022/05/10 03:45:23;;;;;;;4.97;2.87;;;;;;;16.31;46.38;95100.41;5095953;28;20279;-81
2022/05/10 03:47:51;;;;;;;4.00;3.07;;;;;;;16.34;46.32;95107.03;5094306;28;20197;-81
2022/05/10 03:50:20;;;;;;;5.47;2.70;;;;;;;16.37;46.53;95101.56;5093452;28;20212;-81
2022/05/10 03:52:49;;;;;;;5.53;3.00;;;;;;;16.40;46.44;95105.56;5087567;28;20222;-81
2022/05/10 03:55:17;;;;;;;6.27;3.20;;;;;;;16.44;46.44;95109.44;5073274;28;20202;-82
2022/05/10 03:57:45;;;;;;;4.73;3.00;;;;;;;16.47;46.67;95112.50;5092457;28;20219;-83
2022/05/10 04:00:17;;;;;;;6.77;3.20;;;;;;;16.53;46.38;95108.44;5094034;28;20257;-82
2022/05/10 04:02:44;;;;;;;4.63;3.70;;;;;;;16.39;46.45;95088.47;5093674;28;20185;-80
2022/05/10 04:05:13;;;;;;;4.70;3.37;;;;;;;16.60;46.82;95113.78;5093436;28;20186;-83
2022/05/10 04:07:40;;;;;;;7.80;3.50;;;;;;;16.63;46.72;95114.25;5095052;28;20549;-81
2022/05/10 04:10:10;;;;;;;11.77;3.37;;;;;;;16.67;46.70;95117.31;5078364;28;20588;-81
2022/05/10 04:12:37;;;;;;;4.10;3.30;;;;;;;16.70;47.02;95112.63;5073002;28;20195;-79
2022/05/10 04:15:06;;;;;;;4.03;3.10;;;;;;;16.73;47.23;95117.50;5073059;28;20201;-80
2022/05/10 04:17:33;;;;;;;4.97;3.47;;;;;;;16.76;47.50;95119.75;5073546;28;20225;-82
2022/05/10 04:19:59;;;;;;;5.53;3.67;;;;;;;16.78;47.72;95119.56;5074365;28;20605;-82
2022/05/10 04:22:26;;;;;;;7.93;3.70;;;;;;;16.69;47.83;95105.84;5077620;28;20190;-80
2022/05/10 04:24:53;;;;;;;8.63;3.40;;;;;;;16.66;48.03;95095.84;5074462;28;20201;-86
2022/05/10 04:27:21;;;;;;;8.23;3.50;;;;;;;16.92;47.91;95118.88;5073699;28;20194;-83
2022/05/10 04:29:48;;;;;;;4.43;3.40;;;;;;;17.00;47.76;95125.81;5075586;28;20304;-82
2022/05/10 04:32:15;;;;;;;6.07;4.13;;;;;;;17.07;47.49;95126.75;5097042;28;20182;-83
2022/05/10 04:34:42;;;;;;;7.83;3.70;;;;;;;17.02;47.39;95100.63;5095097;28;20334;-85
2022/05/10 04:37:09;;;;;;;6.30;4.07;;;;;;;17.14;47.29;95109.63;5092597;28;20529;-84
2022/05/10 04:42:21;;;;;;;7.43;3.47;;;;;;;17.37;46.57;95135.53;5074246;28;20277;-86
2022/05/10 04:44:48;;;;;;;4.17;3.40;;;;;;;17.13;46.58;95076.97;5096018;28;20201;-85
2022/05/10 04:47:15;;;;;;;5.03;3.83;;;;;;;17.36;46.54;95097.75;5099558;28;20200;-88
2022/05/10 04:49:42;;;;;;;9.80;4.60;;;;;;;17.68;46.25;95134.72;5085265;28;20297;-83
2022/05/10 04:52:10;;;;;;;5.07;3.63;;;;;;;17.90;46.70;95133.19;5075710;28;20300;-83
2022/05/10 04:54:37;;;;;;;6.20;3.30;;;;;;;18.20;48.11;95134.09;5077470;28;20182;-81
2022/05/10 04:57:05;;;;;;;5.37;3.87;;;;;;;18.16;48.67;95074.09;5093004;28;20193;-87
2022/05/10 04:59:33;;;;;;;8.10;3.90;;;;;;;18.82;48.86;95102.78;5093442;28;20274;-81
2022/05/10 05:02:00;;;;;;;7.03;3.00;;;;;;;19.60;53.03;95136.88;5091855;28;20213;-84
2022/05/10 05:04:27;;;;;;;10.07;3.47;;;;;;;20.19;54.54;95137.53;5093043;28;20193;-87
2022/05/10 05:06:54;;;;;;;10.77;3.13;;;;;;;20.59;54.76;95108.50;5089341;28;20184;-84
2022/05/10 05:09:21;;;;;;;5.93;2.70;;;;;;;21.35;54.18;95142.38;5082051;28;20194;-79
2022/05/10 05:11:47;;;;;;;7.33;3.00;;;;;;;21.92;52.71;95152.41;5088617;28;20208;-84
2022/05/10 05:14:14;;;;;;;9.07;3.60;;;;;;;21.00;51.40;94921.34;5088147;28;20574;-79
2022/05/10 05:16:43;;;;;;;7.13;3.13;;;;;;;22.77;50.28;95109.19;5074274;28;20179;-79
2022/05/10 05:19:09;;;;;;;6.30;3.42;;;;;;;23.44;49.07;95141.16;5072382;28;20225;-80
2022/05/10 05:21:36;;;;;;;7.75;3.28;;;;;;;23.87;47.21;95142.41;5078382;28;20193;-81
2022/05/10 05:24:05;;;;;;;5.60;3.45;;;;;;;24.28;46.30;95141.97;5090329;28;20201;-84
2022/05/10 05:26:32;;;;;;;5.00;3.08;;;;;;;24.68;45.79;95141.69;5090938;28;20221;-80
2022/05/10 05:29:03;;;;;;;6.93;3.03;;;;;;;24.72;44.73;95093.97;5090711;28;20209;-84
2022/05/10 05:31:31;;;;;;;10.50;3.65;;;;;;;25.41;44.72;95143.63;5091163;28;20200;-77
2022/05/10 05:33:59;;;;;;;8.38;3.17;;;;;;;25.74;43.61;95140.63;5087704;28;20213;-80
2022/05/10 05:36:26;;;;;;;10.88;3.92;;;;;;;26.06;42.57;95143.84;5069631;28;20209;-78
2022/05/10 05:38:53;;;;;;;9.15;3.55;;;;;;;26.20;42.43;95119.00;5069620;28;20213;-82
2022/05/10 05:41:20;;;;;;;5.70;3.33;;;;;;;26.49;41.82;95120.03;5069545;28;20550;-84
2022/05/10 05:43:47;;;;;;;11.85;3.08;;;;;;;26.87;39.99;95139.78;5079066;28;20190;-80
2022/05/10 05:46:14;;;;;;;12.15;3.38;;;;;;;27.04;40.40;95123.34;5088743;28;20673;-83
2022/05/10 05:48:41;;;;;;;9.50;2.85;;;;;;;27.24;39.80;95119.34;5089809;28;20194;-84
2022/05/10 05:51:09;;;;;;;7.07;3.50;;;;;;;27.57;39.11;95135.50;5089385;28;20261;-83
2022/05/10 05:53:36;;;;;;;6.50;3.00;;;;;;;27.78;38.82;95134.91;5086464;28;20595;-78
2022/05/10 05:56:04;;;;;;;3.33;2.95;;;;;;;27.95;38.26;95132.31;5078067;28;20186;-82
2022/05/10 05:58:31;;;;;;;7.50;3.22;;;;;;;28.16;37.79;95134.28;5089136;28;20197;-82
2022/05/10 06:00:58;;;;;;;9.60;3.20;;;;;;;28.34;37.66;95132.47;5089521;28;20224;-82
2022/05/10 06:03:25;;;;;;;6.70;3.22;;;;;;;28.25;37.29;95093.41;5077987;28;20929;-81
2022/05/10 06:05:52;;;;;;;5.22;3.28;;;;;;;28.70;37.15;95131.22;5086906;28;20200;-83
2022/05/10 06:08:21;;;;;;;9.27;3.10;;;;;;;28.87;37.08;95134.63;5090350;28;20754;-82
2022/05/10 06:10:50;;;;;;;5.80;2.95;;;;;;;28.94;37.05;95119.47;5089913;28;20193;-78
2022/05/10 06:13:21;;;;;;;4.72;3.28;;;;;;;29.19;36.91;95134.88;5053805;28;20191;-83
2022/05/10 06:15:49;;;;;;;4.68;2.78;;;;;;;29.04;36.16;95092.50;5054615;28;20191;-82
2022/05/10 06:18:16;;;;;;;5.05;3.10;;;;;;;29.05;36.18;95070.38;5083368;28;20193;-79
2022/05/10 06:20:44;;;;;;;5.07;3.13;;;;;;;29.61;35.85;95142.25;5073947;28;20214;-78
2022/05/10 06:23:11;;;;;;;4.40;2.50;;;;;;;29.74;35.62;95139.25;5072063;28;20202;-78
2022/05/10 06:25:41;;;;;;;6.65;3.53;;;;;;;29.87;35.88;95135.41;5074580;28;20203;-81
2022/05/10 06:28:08;;;;;;;6.78;2.88;;;;;;;29.99;35.84;95133.44;5091910;28;20208;-80
2022/05/10 06:30:37;;;;;;;6.28;2.97;;;;;;;30.09;33.97;95139.88;5076294;28;20189;-78
2022/05/10 06:33:04;;;;;;;4.25;2.60;;;;;;;29.87;33.58;95098.50;5084698;28;20185;-75
2022/05/10 06:35:32;;;;;;;3.20;2.50;;;;;;;30.04;33.77;95110.81;5094756;28;20201;-87
2022/05/10 06:38:19;;;;;;;3.55;2.60;;;;;;;30.29;35.54;95139.31;5080701;28;20205;-81
2022/05/10 06:40:48;;;;;;;4.30;2.30;;;;;;;30.37;35.40;95137.00;5079725;28;20233;-78
2022/05/10 06:43:18;;;;;;;8.35;2.47;;;;;;;30.37;34.44;95129.09;5080383;28;20197;-78
2022/05/10 06:45:45;;;;;;;6.60;2.65;;;;;;;30.45;35.14;95125.19;5090889;28;20189;-82
2022/05/10 06:48:12;;;;;;;13.70;3.22;;;;;;;30.60;34.98;95140.34;5078453;28;20198;-81
2022/05/10 06:50:45;;;;;;;4.75;3.15;;;;;;;30.59;34.73;95126.34;5077904;28;20651;-82
2022/05/10 06:53:14;;;;;;;2.65;2.28;;;;;;;30.40;33.22;95088.22;5089193;28;20181;-83
2022/05/10 06:55:42;;;;;;;4.97;2.72;;;;;;;30.75;33.66;95137.88;5091109;28;20194;-81
2022/05/10 06:58:11;;;;;;;4.45;2.53;;;;;;;30.83;34.02;95136.56;5081285;28;20193;-79
2022/05/10 07:00:40;;;;;;;4.93;2.67;;;;;;;30.88;34.08;95131.34;5077526;28;20221;-81
2022/05/10 07:03:08;;;;;;;2.88;2.55;;;;;;;30.96;33.83;95134.31;5087249;28;20216;-79
2022/05/10 07:05:35;;;;;;;6.05;2.58;;;;;;;31.05;34.35;95139.13;5080026;28;20194;-89
2022/05/10 07:08:02;;;;;;;7.85;2.90;;;;;;;31.11;34.70;95130.16;5082824;28;20185;-86
2022/05/10 07:10:31;;;;;;;7.32;2.78;;;;;;;31.16;34.03;95136.25;5084910;28;20196;-84
2022/05/10 07:12:58;;;;;;;5.22;2.40;;;;;;;31.21;34.58;95135.50;5072551;28;20190;-84
2022/05/10 07:15:26;;;;;;;8.45;2.63;;;;;;;31.27;35.07;95133.69;5067471;28;20219;-82
2022/05/10 07:17:53;;;;;;;9.38;2.63;;;;;;;31.19;34.49;95113.81;5077056;28;20190;-85
2022/05/10 07:20:21;;;;;;;5.20;2.65;;;;;;;31.11;34.83;95079.97;5078538;28;20271;-80
2022/05/10 07:22:48;;;;;;;5.80;2.92;;;;;;;31.37;34.51;95110.75;5074317;28;20237;-82
2022/05/10 07:25:18;;;;;;;5.90;2.10;;;;;;;31.58;34.28;95124.06;5077351;28;20204;-79
2022/05/10 07:27:45;;;;;;;5.80;2.83;;;;;;;31.66;34.00;95124.38;5083055;28;20190;-77
2022/05/10 07:30:13;;;;;;;5.85;2.58;;;;;;;31.49;33.87;95089.41;5075617;28;20276;-83
2022/05/10 07:32:42;;;;;;;6.25;2.90;;;;;;;31.79;34.10;95127.59;5086915;28;20178;-85
2022/05/10 07:35:10;;;;;;;5.32;2.72;;;;;;;31.82;33.98;95124.41;5086022;28;20213;-77
2022/05/10 07:37:38;;;;;;;5.05;2.83;;;;;;;31.77;33.45;95117.25;5085766;28;20455;-77
2022/05/10 07:40:06;;;;;;;6.43;3.05;;;;;;;31.72;32.55;95119.88;5088729;28;20446;-79
2022/05/10 07:42:33;;;;;;;3.15;2.80;;;;;;;31.60;32.18;95114.81;5075335;28;20197;-79
2022/05/10 07:45:00;;;;;;;6.90;3.03;;;;;;;31.66;32.34;95123.56;5080329;28;20212;-76
2022/05/10 07:47:29;;;;;;;7.50;3.33;;;;;;;31.45;32.27;95102.34;5089240;28;20189;-76
2022/05/10 07:49:57;;;;;;;4.97;2.97;;;;;;;31.01;31.92;95043.72;5078660;28;20190;-77
2022/05/10 07:52:24;;;;;;;5.28;3.20;;;;;;;31.51;32.32;95123.50;5084501;28;20230;-77
2022/05/10 07:54:51;;;;;;;5.10;3.13;;;;;;;31.46;31.85;95132.22;5075786;28;20190;-77
2022/05/10 07:57:18;;;;;;;6.32;3.95;;;;;;;31.40;30.94;95125.31;5080006;28;20190;-76
2022/05/10 07:59:47;;;;;;;6.10;2.90;;;;;;;31.18;30.52;95099.81;5086204;28;20213;-78
2022/05/10 08:02:14;;;;;;;3.97;2.83;;;;;;;31.23;30.73;95128.91;5078386;28;20754;-78
2022/05/10 08:04:41;;;;;;;3.70;2.50;;;;;;;31.19;31.50;95133.13;5080547;28;20673;-77
2022/05/10 08:07:09;;;;;;;11.40;3.38;;;;;;;31.14;31.79;95119.88;5079056;28;20202;-79
2022/05/10 08:09:36;;;;;;;7.57;3.10;;;;;;;31.09;31.26;95124.31;5082501;28;20196;-77
2022/05/10 08:12:04;;;;;;;6.30;2.80;;;;;;;31.02;30.90;95115.84;5079925;28;20187;-77
2022/05/10 08:14:31;;;;;;;3.42;2.90;;;;;;;30.94;30.69;95120.53;5085854;28;20197;-82
2022/05/10 08:16:57;;;;;;;7.20;2.97;;;;;;;30.82;30.77;95113.88;5077588;28;20221;-80
2022/05/10 08:19:25;;;;;;;6.55;3.10;;;;;;;30.83;31.50;95124.19;5077354;28;20201;-77
2022/05/10 08:21:56;;;;;;;5.75;2.40;;;;;;;30.76;31.47;95117.53;5070498;28;20197;-78
2022/05/10 08:24:27;;;;;;;3.17;2.47;;;;;;;30.37;31.04;95060.47;5080929;28;20233;-79
2022/05/10 08:27:21;;;;;;;7.53;2.67;;;;;;;30.59;30.35;95112.34;5078259;28;20194;-78
2022/05/10 08:29:50;;;;;;;3.20;2.88;;;;;;;30.50;30.83;95114.66;5065018;28;20193;-80
2022/05/10 08:32:17;;;;;;;4.28;2.78;;;;;;;30.42;31.43;95110.66;5082590;28;20269;-78
2022/05/10 08:34:44;;;;;;;5.75;2.45;;;;;;;30.36;31.01;95118.78;5087466;28;20181;-82
2022/05/10 08:37:11;;;;;;;6.32;2.58;;;;;;;30.18;30.14;95104.09;5080714;28;20202;-82
2022/05/10 08:39:40;;;;;;;5.57;2.28;;;;;;;30.15;30.04;95101.97;5080082;28;20187;-79
2022/05/10 08:42:20;;;;;;;5.25;2.70;;;;;;;30.02;29.72;95103.16;5072051;28;20240;-81
2022/05/10 08:44:55;;;;;;;3.05;2.08;;;;;;;29.99;30.32;95107.06;5065624;28;20250;-79
2022/05/10 08:47:24;;;;;;;3.30;2.70;;;;;;;29.93;30.42;95105.44;5081178;28;20181;-83
2022/05/10 08:49:54;;;;;;;7.72;2.50;;;;;;;29.85;30.03;95105.09;5076969;28;20194;-81
2022/05/10 08:52:30;;;;;;;4.35;2.50;;;;;;;29.65;30.76;95085.34;5086639;28;20234;-80
2022/05/10 08:55:01;;;;;;;4.35;2.42;;;;;;;29.69;30.79;95093.56;5091138;28;20273;-81
2022/05/10 08:57:41;;;;;;;5.05;2.35;;;;;;;29.55;30.94;95076.53;5080597;28;20187;-80
2022/05/10 09:00:12;;;;;;;5.13;2.17;;;;;;;29.54;31.16;95088.13;5088458;28;20209;-81
2022/05/10 09:02:44;;;;;;;2.20;2.00;;;;;;;29.47;31.50;95083.81;5075237;28;20235;-79
2022/05/10 09:05:18;;;;;;;3.40;2.20;;;;;;;29.39;31.25;95088.72;5076007;28;20682;-83
2022/05/10 09:07:54;;;;;;;2.47;2.28;;;;;;;29.31;30.97;95086.50;5077567;28;20186;-77
2022/05/10 09:10:32;;;;;;;2.15;1.95;;;;;;;29.17;31.29;95070.28;5072411;28;20182;-79
2022/05/10 09:13:04;;;;;;;3.63;2.33;;;;;;;29.15;31.30;95080.28;5080080;28;20688;-78
2022/05/10 09:15:37;;;;;;;3.97;2.00;;;;;;;29.08;31.00;95083.06;5085993;28;20197;-80
2022/05/10 09:18:08;;;;;;;2.20;1.92;;;;;;;29.03;31.28;95079.59;5076693;28;20665;-77
2022/05/10 09:20:45;;;;;;;2.85;2.13;;;;;;;28.94;31.06;95076.53;5073099;28;20213;-78
2022/05/10 09:23:22;;;;;;;3.00;2.00;;;;;;;28.86;31.16;95072.50;5071977;28;20248;-77
2022/05/10 09:25:50;;;;;;;5.35;2.20;;;;;;;28.79;31.15;95066.59;5077840;28;20193;-80
2022/05/10 09:28:24;;;;;;;4.53;2.30;;;;;;;28.70;30.85;95065.41;5070973;28;20217;-80
2022/05/10 09:36:26;;;;;;;2.10;1.92;;;;;;;28.35;31.61;95044.59;5077287;28;20556;-80
2022/05/10 09:39:00;;;;;;;2.25;1.90;;;;;;;28.45;31.55;95064.03;5080267;28;20206;-80
2022/05/10 09:41:33;;;;;;;4.32;2.33;;;;;;;28.19;31.89;95033.84;5079688;28;20240;-79
2022/05/10 09:44:17;;;;;;;3.55;2.25;;;;;;;28.29;32.12;95051.63;5076121;28;20252;-79
2022/05/10 09:46:44;;;;;;;2.30;1.90;;;;;;;28.21;31.71;95052.03;5076886;28;20205;-79
2022/05/10 09:49:31;;;;;;;2.60;2.35;;;;;;;28.12;31.70;95043.72;5083123;28;20194;-78
2022/05/10 09:51:59;;;;;;;3.35;2.13;;;;;;;28.16;32.40;95051.94;5073563;28;20316;-78
2022/05/10 09:54:34;;;;;;;4.13;2.25;;;;;;;27.98;32.32;95038.00;5083420;28;20200;-82
2022/05/10 09:57:03;;;;;;;2.03;1.88;;;;;;;27.95;32.66;95037.66;5070333;28;20204;-81
2022/05/10 09:59:39;;;;;;;2.53;2.25;;;;;;;27.99;32.52;95050.09;5069233;28;20247;-81
2022/05/10 10:02:06;;;;;;;6.10;2.45;;;;;;;27.93;32.21;95045.78;5083579;28;20282;-80
2022/05/10 10:04:35;;;;;;;3.88;2.10;;;;;;;27.89;33.03;95043.84;5080744;28;20193;-78
2022/05/10 10:07:09;;;;;;;2.45;2.25;;;;;;;27.82;33.13;95040.59;5084585;28;20637;-80
2022/05/10 10:09:38;;;;;;;2.97;2.15;;;;;;;27.68;33.28;95025.09;5076181;28;20676;-78
2022/05/10 10:12:16;;;;;;;3.63;1.88;;;;;;;27.73;33.59;95029.66;5076640;28;20554;-79
2022/05/10 10:14:46;;;;;;;3.47;2.22;;;;;;;27.68;33.17;95025.09;5087914;28;20210;-81
2022/05/10 10:17:25;;;;;;;4.07;2.58;;;;;;;27.63;32.53;95022.34;5073619;28;20210;-80
2022/05/10 10:19:58;;;;;;;5.03;1.95;;;;;;;27.58;32.31;95022.28;5078428;28;20193;-80
2022/05/10 10:22:33;;;;;;;7.25;2.30;;;;;;;27.50;32.12;95006.88;5085288;28;20205;-79
2022/05/10 10:25:05;;;;;;;2.80;2.20;;;;;;;27.54;32.53;95009.84;5079761;28;20181;-78
2022/05/10 10:27:39;;;;;;;4.25;2.30;;;;;;;27.52;32.97;95012.72;5074274;28;20197;-80
2022/05/10 10:30:17;;;;;;;5.35;2.10;;;;;;;27.45;32.84;94998.91;5079145;28;20705;-78
2022/05/10 10:32:48;;;;;;;3.28;2.40;;;;;;;27.50;32.65;95017.38;5087202;28;20197;-79
2022/05/10 10:35:19;;;;;;;5.40;2.38;;;;;;;27.49;32.76;95013.19;5086447;28;20194;-80
2022/05/10 10:37:51;;;;;;;5.82;2.40;;;;;;;27.41;32.15;94995.94;5074597;28;20187;-78
2022/05/10 10:40:31;;;;;;;2.63;2.20;;;;;;;27.40;32.37;94999.63;5088646;28;20194;-80
2022/05/10 10:43:07;;;;;;;2.30;2.13;;;;;;;27.44;32.05;95003.38;5082658;28;20194;-79
2022/05/10 10:45:39;;;;;;;1.92;1.80;;;;;;;27.39;31.75;94989.34;5078160;28;20197;-80
2022/05/10 10:48:27;;;;;;;2.72;2.17;;;;;;;27.41;31.55;94990.69;5078667;28;20263;-79
2022/05/10 10:50:56;;;;;;;4.45;2.35;;;;;;;27.40;31.70;94994.38;5073929;28;20237;-78
2022/05/10 10:53:25;;;;;;;1.90;1.80;;;;;;;27.32;31.60;94986.84;5075115;28;20193;-79
2022/05/10 10:56:21;;;;;;;2.08;1.98;;;;;;;27.29;31.26;94982.09;5083053;28;20577;-78
2022/05/10 10:59:05;;;;;;;3.30;2.30;;;;;;;27.00;31.56;94947.13;5085845;28;20194;-79
2022/05/10 11:01:53;;;;;;;3.85;2.13;;;;;;;27.23;32.09;94991.69;5086444;28;20247;-78
2022/05/10 11:04:41;;;;;;;7.50;2.17;;;;;;;27.22;32.18;94978.81;5081784;28;20201;-80
2022/05/10 11:07:18;;;;;;;2.20;2.00;;;;;;;27.00;32.11;94947.91;5068787;28;20197;-81
2022/05/10 11:09:51;;;;;;;5.63;2.42;;;;;;;27.17;31.64;94981.34;5076177;28;20197;-80
2022/05/10 11:12:32;;;;;;;2.17;1.90;;;;;;;27.17;31.92;94974.25;5073195;28;20190;-78
2022/05/10 11:15:23;;;;;;;4.05;2.10;;;;;;;26.99;32.16;94948.16;5077016;28;20194;-78
2022/05/10 11:18:09;;;;;;;2.63;2.15;;;;;;;27.04;31.26;94960.56;5082376;28;20189;-78
2022/05/10 11:20:48;;;;;;;2.22;1.92;;;;;;;26.87;31.32;94926.41;5088034;28;20316;-79
2022/05/10 11:23:27;;;;;;;2.72;2.03;;;;;;;27.08;31.79;94953.84;5083001;28;20278;-78
2022/05/10 11:26:10;;;;;;;3.67;2.42;;;;;;;27.06;31.28;94950.63;5074717;28;20186;-77
2022/05/10 11:29:17;;;;;;;4.97;2.42;;;;;;;26.89;31.55;94919.06;5078497;28;20182;-75
2022/05/10 11:31:57;;;;;;;4.05;2.28;;;;;;;27.08;31.86;94948.56;4988165;28;20197;-76
2022/05/10 11:34:44;;;;;;;3.08;2.10;;;;;;;27.08;32.77;94951.22;4985792;28;20185;-80
2022/05/10 11:37:16;;;;;;;5.22;2.13;;;;;;;27.06;32.38;94942.75;4987723;28;20189;-81
2022/05/10 11:40:02;;;;;;;2.75;2.25;;;;;;;27.02;32.34;94937.97;4986579;28;20723;-79
2022/05/10 11:42:37;;;;;;;2.40;2.10;;;;;;;26.99;32.18;94930.56;4988435;28;20228;-81
2022/05/10 11:45:37;;;;;;;2.20;2.00;;;;;;;26.94;31.58;94927.03;4993631;28;20224;-80
2022/05/10 11:48:38;;;;;;;6.00;2.33;;;;;;;26.90;31.31;94921.47;4988454;28;20297;-82
2022/05/10 11:51:41;;;;;;;3.67;2.22;;;;;;;26.89;32.49;94924.31;4930103;29;20237;-81
2022/05/10 11:54:39;;;;;;;2.28;2.08;;;;;;;26.86;32.56;94914.31;4929887;29;20202;-82
2022/05/10 11:57:11;;;;;;;2.00;1.90;;;;;;;26.83;32.85;94910.31;4930072;29;21059;-78
2022/05/10 11:59:41;;;;;;;2.85;2.25;;;;;;;26.80;32.73;94904.72;4929764;29;20202;-80
2022/05/10 12:02:54;;;;;;;2.47;2.28;;;;;;;26.60;32.28;94889.38;4928997;29;20234;-78